sensor_id;sensor_type;location;lat;lon;timestamp;pressure;altitude;pressure_sealevel;temperature;humidity
12963;BME280;6546;49.882;8.666;2023-05-07T00:01:31;99978.44;;;16.85;61.45
12963;BME280;6546;49.882;8.666;2023-05-07T00:03:59;99974.03;;;16.86;61.39
12963;BME280;6546;49.882;8.666;2023-05-07T00:06:26;99977.66;;;16.71;62.36
12963;BME280;6546;49.882;8.666;2023-05-07T00:08:54;99982.06;;;16.71;62.35
12963;BME280;6546;49.882;8.666;2023-05-07T00:11:20;99980.88;;;16.73;62.50
12963;BME280;6546;49.882;8.666;2023-05-07T00:13:47;99976.81;;;16.91;62.16
12963;BME280;6546;49.882;8.666;2023-05-07T00:16:14;99973.22;;;16.85;62.29
12963;BME280;6546;49.882;8.666;2023-05-07T00:18:40;99974.81;;;16.93;62.02
12963;BME280;6546;49.882;8.666;2023-05-07T00:21:08;99978.25;;;16.80;62.66
12963;BME280;6546;49.882;8.666;2023-05-07T00:23:35;99973.63;;;16.75;62.55
12963;BME280;6546;49.882;8.666;2023-05-07T00:26:01;99968.81;;;16.72;62.47
12963;BME280;6546;49.882;8.666;2023-05-07T00:28:28;99972.25;;;16.66;63.14
12963;BME280;6546;49.882;8.666;2023-05-07T00:30:54;99973.25;;;16.65;63.17
12963;BME280;6546;49.882;8.666;2023-05-07T00:33:21;99976.44;;;16.67;62.97
12963;BME280;6546;49.882;8.666;2023-05-07T00:35:48;99970.44;;;16.73;62.85
12963;BME280;6546;49.882;8.666;2023-05-07T00:38:16;99967.41;;;16.70;63.26
12963;BME280;6546;49.882;8.666;2023-05-07T00:40:43;99959.16;;;16.73;62.76
12963;BME280;6546;49.882;8.666;2023-05-07T00:43:10;99957.56;;;16.59;63.61
12963;BME280;6546;49.882;8.666;2023-05-07T00:45:38;99950.13;;;16.62;62.92
12963;BME280;6546;49.882;8.666;2023-05-07T00:48:04;99957.94;;;16.75;62.66
12963;BME280;6546;49.882;8.666;2023-05-07T00:50:32;99949.31;;;16.68;63.35
12963;BME280;6546;49.882;8.666;2023-05-07T00:52:59;99946.28;;;16.71;63.19
12963;BME280;6546;49.882;8.666;2023-05-07T00:55:28;99951.53;;;16.65;63.44
12963;BME280;6546;49.882;8.666;2023-05-07T00:57:55;99956.75;;;16.71;63.07
12963;BME280;6546;49.882;8.666;2023-05-07T01:00:21;99947.50;;;16.75;63.39
12963;BME280;6546;49.882;8.666;2023-05-07T01:02:49;99951.94;;;16.55;63.78
12963;BME280;6546;49.882;8.666;2023-05-07T01:05:17;99947.13;;;16.59;64.28
12963;BME280;6546;49.882;8.666;2023-05-07T01:07:45;99948.09;;;16.64;64.20
12963;BME280;6546;49.882;8.666;2023-05-07T01:10:13;99952.56;;;16.57;64.47
12963;BME280;6546;49.882;8.666;2023-05-07T01:12:42;99944.69;;;16.51;64.44
12963;BME280;6546;49.882;8.666;2023-05-07T01:15:11;99940.06;;;16.46;64.49
12963;BME280;6546;49.882;8.666;2023-05-07T01:17:39;99937.06;;;16.36;64.58
12963;BME280;6546;49.882;8.666;2023-05-07T01:20:08;99949.72;;;16.39;65.16
12963;BME280;6546;49.882;8.666;2023-05-07T01:22:37;99941.69;;;16.41;65.10
12963;BME280;6546;49.882;8.666;2023-05-07T01:25:06;99945.47;;;16.38;65.30
12963;BME280;6546;49.882;8.666;2023-05-07T01:27:33;99939.47;;;16.31;65.71
12963;BME280;6546;49.882;8.666;2023-05-07T01:30:00;99943.69;;;16.32;65.67
12963;BME280;6546;49.882;8.666;2023-05-07T01:32:33;99946.09;;;16.34;65.54
12963;BME280;6546;49.882;8.666;2023-05-07T01:35:02;99941.88;;;16.26;65.89
12963;BME280;6546;49.882;8.666;2023-05-07T01:37:31;99946.69;;;16.36;65.49
12963;BME280;6546;49.882;8.666;2023-05-07T01:40:00;99943.69;;;16.32;65.88
12963;BME280;6546;49.882;8.666;2023-05-07T01:42:28;99939.88;;;16.28;65.83
12963;BME280;6546;49.882;8.666;2023-05-07T01:44:55;99942.69;;;16.20;66.25
12963;BME280;6546;49.882;8.666;2023-05-07T01:47:22;99931.44;;;16.13;66.20
12963;BME280;6546;49.882;8.666;2023-05-07T01:49:49;99936.47;;;15.95;67.30
12963;BME280;6546;49.882;8.666;2023-05-07T01:52:16;99928.63;;;15.95;67.21
12963;BME280;6546;49.882;8.666;2023-05-07T01:54:43;99935.06;;;16.12;66.61
12963;BME280;6546;49.882;8.666;2023-05-07T01:57:11;99937.88;;;16.17;66.46
12963;BME280;6546;49.882;8.666;2023-05-07T01:59:37;99927.00;;;16.13;66.66
12963;BME280;6546;49.882;8.666;2023-05-07T02:02:04;99926.19;;;16.00;66.84
12963;BME280;6546;49.882;8.666;2023-05-07T02:04:30;99930.84;;;16.04;67.02
12963;BME280;6546;49.882;8.666;2023-05-07T02:06:57;99932.06;;;16.02;67.01
12963;BME280;6546;49.882;8.666;2023-05-07T02:09:23;99930.25;;;15.96;67.09
12963;BME280;6546;49.882;8.666;2023-05-07T02:11:50;99929.44;;;15.95;67.12
12963;BME280;6546;49.882;8.666;2023-05-07T02:14:18;99929.63;;;16.00;66.81
12963;BME280;6546;49.882;8.666;2023-05-07T02:16:45;99940.06;;;16.07;66.54
12963;BME280;6546;49.882;8.666;2023-05-07T02:19:11;99938.28;;;16.01;66.53
12963;BME280;6546;49.882;8.666;2023-05-07T02:21:38;99942.88;;;15.92;67.28
12963;BME280;6546;49.882;8.666;2023-05-07T02:24:05;99933.84;;;15.95;67.21
12963;BME280;6546;49.882;8.666;2023-05-07T02:26:31;99938.06;;;15.83;67.41
12963;BME280;6546;49.882;8.666;2023-05-07T02:28:59;99932.63;;;15.84;67.20
12963;BME280;6546;49.882;8.666;2023-05-07T02:31:27;99929.03;;;15.92;66.79
12963;BME280;6546;49.882;8.666;2023-05-07T02:33:53;99940.25;;;15.72;67.22
12963;BME280;6546;49.882;8.666;2023-05-07T02:36:20;99941.66;;;15.75;67.24
12963;BME280;6546;49.882;8.666;2023-05-07T02:38:46;99939.47;;;15.85;67.01
12963;BME280;6546;49.882;8.666;2023-05-07T02:41:13;99935.06;;;15.86;66.53
12963;BME280;6546;49.882;8.666;2023-05-07T02:43:39;99943.47;;;15.88;66.86
12963;BME280;6546;49.882;8.666;2023-05-07T02:46:07;99937.06;;;15.97;66.29
12963;BME280;6546;49.882;8.666;2023-05-07T02:48:36;99946.69;;;16.03;65.95
12963;BME280;6546;49.882;8.666;2023-05-07T02:51:03;99947.72;;;16.02;66.17
12963;BME280;6546;49.882;8.666;2023-05-07T02:53:30;99950.34;;;16.08;65.95
12963;BME280;6546;49.882;8.666;2023-05-07T02:55:58;99946.69;;;16.16;65.13
12963;BME280;6546;49.882;8.666;2023-05-07T02:58:25;99943.09;;;16.04;65.60
12963;BME280;6546;49.882;8.666;2023-05-07T03:00:52;99941.88;;;16.06;65.71
12963;BME280;6546;49.882;8.666;2023-05-07T03:03:19;99935.66;;;16.01;65.99
12963;BME280;6546;49.882;8.666;2023-05-07T03:05:47;99943.09;;;15.97;65.72
12963;BME280;6546;49.882;8.666;2023-05-07T03:08:14;99936.06;;;15.98;65.65
12963;BME280;6546;49.882;8.666;2023-05-07T03:10:40;99931.81;;;15.97;65.56
12963;BME280;6546;49.882;8.666;2023-05-07T03:13:07;99931.03;;;15.96;65.68
12963;BME280;6546;49.882;8.666;2023-05-07T03:15:33;99933.84;;;15.95;65.43
12963;BME280;6546;49.882;8.666;2023-05-07T03:18:00;99930.66;;;15.93;65.62
12963;BME280;6546;49.882;8.666;2023-05-07T03:20:27;99928.22;;;15.91;65.62
12963;BME280;6546;49.882;8.666;2023-05-07T03:22:54;99928.03;;;15.93;65.28
12963;BME280;6546;49.882;8.666;2023-05-07T03:25:21;99927.63;;;15.83;65.48
12963;BME280;6546;49.882;8.666;2023-05-07T03:27:48;99923.78;;;15.79;65.53
12963;BME280;6546;49.882;8.666;2023-05-07T03:30:14;99929.03;;;15.92;65.32
12963;BME280;6546;49.882;8.666;2023-05-07T03:32:41;99915.75;;;15.93;65.02
12963;BME280;6546;49.882;8.666;2023-05-07T03:35:08;99918.56;;;15.79;65.13
12963;BME280;6546;49.882;8.666;2023-05-07T03:37:35;99922.97;;;15.78;65.35
12963;BME280;6546;49.882;8.666;2023-05-07T03:40:03;99922.38;;;15.76;65.18
12963;BME280;6546;49.882;8.666;2023-05-07T03:42:30;99916.38;;;15.89;64.82
12963;BME280;6546;49.882;8.666;2023-05-07T03:44:57;99906.91;;;15.88;64.66
12963;BME280;6546;49.882;8.666;2023-05-07T03:47:24;99910.34;;;15.95;64.05
12963;BME280;6546;49.882;8.666;2023-05-07T03:49:50;99912.97;;;15.95;64.38
12963;BME280;6546;49.882;8.666;2023-05-07T03:52:18;99914.56;;;16.02;63.60
12963;BME280;6546;49.882;8.666;2023-05-07T03:54:51;99913.75;;;15.89;64.46
12963;BME280;6546;49.882;8.666;2023-05-07T03:57:19;99914.16;;;15.86;64.59
12963;BME280;6546;49.882;8.666;2023-05-07T03:59:45;99911.75;;;15.84;64.31
12963;BME280;6546;49.882;8.666;2023-05-07T04:02:12;99915.34;;;15.96;64.15
12963;BME280;6546;49.882;8.666;2023-05-07T04:04:38;99910.75;;;15.92;64.17
12963;BME280;6546;49.882;8.666;2023-05-07T04:07:05;99920.38;;;15.85;64.02
12963;BME280;6546;49.882;8.666;2023-05-07T04:09:32;99926.59;;;15.90;63.85
12963;BME280;6546;49.882;8.666;2023-05-07T04:11:59;99935.06;;;15.86;63.78
12963;BME280;6546;49.882;8.666;2023-05-07T04:14:27;99935.88;;;15.93;64.12
12963;BME280;6546;49.882;8.666;2023-05-07T04:16:55;99935.44;;;15.83;63.96
12963;BME280;6546;49.882;8.666;2023-05-07T04:19:22;99938.25;;;15.81;64.49
12963;BME280;6546;49.882;8.666;2023-05-07T04:21:48;99942.66;;;15.81;64.27
12963;BME280;6546;49.882;8.666;2023-05-07T04:24:15;99938.63;;;15.71;64.65
12963;BME280;6546;49.882;8.666;2023-05-07T04:26:41;99940.66;;;15.69;65.22
12963;BME280;6546;49.882;8.666;2023-05-07T04:29:08;99950.28;;;15.75;64.84
12963;BME280;6546;49.882;8.666;2023-05-07T04:31:36;99945.09;;;15.82;64.61
12963;BME280;6546;49.882;8.666;2023-05-07T04:34:02;99948.31;;;15.91;64.55
12963;BME280;6546;49.882;8.666;2023-05-07T04:36:30;99953.91;;;15.88;64.84
12963;BME280;6546;49.882;8.666;2023-05-07T04:38:58;99946.50;;;15.85;64.93
12963;BME280;6546;49.882;8.666;2023-05-07T04:41:24;99954.53;;;15.77;65.10
12963;BME280;6546;49.882;8.666;2023-05-07T04:43:51;99955.13;;;15.79;64.89
12963;BME280;6546;49.882;8.666;2023-05-07T04:46:18;99945.63;;;15.64;65.34
12963;BME280;6546;49.882;8.666;2023-05-07T04:48:46;99943.25;;;15.63;65.49
12963;BME280;6546;49.882;8.666;2023-05-07T04:51:12;99956.31;;;15.76;65.47
12963;BME280;6546;49.882;8.666;2023-05-07T04:53:39;99950.06;;;15.70;65.29
12963;BME280;6546;49.882;8.666;2023-05-07T04:56:06;99954.09;;;15.66;65.76
12963;BME280;6546;49.882;8.666;2023-05-07T04:58:32;99951.28;;;15.74;64.93
12963;BME280;6546;49.882;8.666;2023-05-07T05:00:59;99957.88;;;15.64;65.24
12963;BME280;6546;49.882;8.666;2023-05-07T05:03:27;99956.31;;;15.69;65.42
12963;BME280;6546;49.882;8.666;2023-05-07T05:05:55;99959.13;;;15.74;64.93
12963;BME280;6546;49.882;8.666;2023-05-07T05:08:24;99959.94;;;15.75;64.98
12963;BME280;6546;49.882;8.666;2023-05-07T05:10:51;99958.53;;;15.72;65.04
12963;BME280;6546;49.882;8.666;2023-05-07T05:13:17;99958.31;;;15.81;64.53
12963;BME280;6546;49.882;8.666;2023-05-07T05:15:44;99960.53;;;15.84;64.55
12963;BME280;6546;49.882;8.666;2023-05-07T05:18:16;99963.16;;;15.84;64.42
12963;BME280;6546;49.882;8.666;2023-05-07T05:20:43;99967.75;;;15.75;64.98
12963;BME280;6546;49.882;8.666;2023-05-07T05:23:11;99964.97;;;15.83;64.61
12963;BME280;6546;49.882;8.666;2023-05-07T05:25:38;99967.38;;;15.91;64.43
12963;BME280;6546;49.882;8.666;2023-05-07T05:28:05;99978.25;;;15.95;64.48
12963;BME280;6546;49.882;8.666;2023-05-07T05:30:32;99980.28;;;15.99;64.03
12963;BME280;6546;49.882;8.666;2023-05-07T05:32:58;99976.63;;;15.94;64.25
12963;BME280;6546;49.882;8.666;2023-05-07T05:35:25;99982.06;;;15.99;63.76
12963;BME280;6546;49.882;8.666;2023-05-07T05:37:51;99981.47;;;16.10;63.55
12963;BME280;6546;49.882;8.666;2023-05-07T05:40:20;99991.31;;;16.08;63.46
12963;BME280;6546;49.882;8.666;2023-05-07T05:42:46;99992.53;;;16.12;63.75
12963;BME280;6546;49.882;8.666;2023-05-07T05:45:13;99981.47;;;16.03;63.71
12963;BME280;6546;49.882;8.666;2023-05-07T05:47:40;99983.28;;;16.16;63.46
12963;BME280;6546;49.882;8.666;2023-05-07T05:50:10;99988.72;;;16.21;63.15
12963;BME280;6546;49.882;8.666;2023-05-07T05:52:36;99986.91;;;16.28;63.07
12963;BME280;6546;49.882;8.666;2023-05-07T05:55:03;99982.28;;;16.30;62.63
12963;BME280;6546;49.882;8.666;2023-05-07T05:57:32;99996.16;;;16.37;62.28
12963;BME280;6546;49.882;8.666;2023-05-07T05:59:58;99991.13;;;16.42;62.33
12963;BME280;6546;49.882;8.666;2023-05-07T06:02:25;99999.78;;;16.49;61.82
12963;BME280;6546;49.882;8.666;2023-05-07T06:04:51;99996.19;;;16.57;61.70
12963;BME280;6546;49.882;8.666;2023-05-07T06:07:18;99993.75;;;16.55;61.43
12963;BME280;6546;49.882;8.666;2023-05-07T06:09:45;99991.97;;;16.56;60.99
12963;BME280;6546;49.882;8.666;2023-05-07T06:12:11;99994.56;;;16.62;61.31
12963;BME280;6546;49.882;8.666;2023-05-07T06:14:39;99998.00;;;16.56;61.01
12963;BME280;6546;49.882;8.666;2023-05-07T06:17:06;100003.63;;;16.66;61.11
12963;BME280;6546;49.882;8.666;2023-05-07T06:19:33;100007.44;;;16.64;61.02
12963;BME280;6546;49.882;8.666;2023-05-07T06:22:00;100011.88;;;16.70;60.67
12963;BME280;6546;49.882;8.666;2023-05-07T06:24:27;100004.41;;;16.73;60.59
12963;BME280;6546;49.882;8.666;2023-05-07T06:26:54;100009.44;;;16.82;60.36
12963;BME280;6546;49.882;8.666;2023-05-07T06:29:21;100005.00;;;16.75;60.40
12963;BME280;6546;49.882;8.666;2023-05-07T06:31:49;100011.44;;;16.79;60.51
12963;BME280;6546;49.882;8.666;2023-05-07T06:34:15;100019.47;;;16.85;60.02
12963;BME280;6546;49.882;8.666;2023-05-07T06:36:41;100011.84;;;16.90;60.16
12963;BME280;6546;49.882;8.666;2023-05-07T06:39:08;100008.63;;;16.74;60.66
12963;BME280;6546;49.882;8.666;2023-05-07T06:41:35;100009.25;;;16.76;60.48
12963;BME280;6546;49.882;8.666;2023-05-07T06:44:01;100010.00;;;16.84;60.07
12963;BME280;6546;49.882;8.666;2023-05-07T06:46:28;100015.47;;;16.89;60.01
12963;BME280;6546;49.882;8.666;2023-05-07T06:48:56;100016.03;;;16.91;60.17
12963;BME280;6546;49.882;8.666;2023-05-07T06:51:23;100016.03;;;16.97;59.73
12963;BME280;6546;49.882;8.666;2023-05-07T06:53:50;100021.88;;;17.06;59.90
12963;BME280;6546;49.882;8.666;2023-05-07T06:56:17;100012.16;;;17.13;59.41
12963;BME280;6546;49.882;8.666;2023-05-07T06:58:43;100017.81;;;17.10;59.49
12963;BME280;6546;49.882;8.666;2023-05-07T07:01:10;100026.28;;;17.12;59.64
12963;BME280;6546;49.882;8.666;2023-05-07T07:03:36;100016.63;;;17.06;59.50
12963;BME280;6546;49.882;8.666;2023-05-07T07:06:04;100017.44;;;17.00;59.72
12963;BME280;6546;49.882;8.666;2023-05-07T07:08:31;100013.00;;;16.94;60.31
12963;BME280;6546;49.882;8.666;2023-05-07T07:10:58;100016.25;;;17.02;60.23
12963;BME280;6546;49.882;8.666;2023-05-07T07:13:24;100015.84;;;16.92;60.54
12963;BME280;6546;49.882;8.666;2023-05-07T07:15:51;100010.81;;;16.84;60.86
12963;BME280;6546;49.882;8.666;2023-05-07T07:18:18;100009.81;;;16.92;60.79
12963;BME280;6546;49.882;8.666;2023-05-07T07:20:45;100019.69;;;16.96;60.82
12963;BME280;6546;49.882;8.666;2023-05-07T07:23:13;100010.56;;;17.12;60.06
12963;BME280;6546;49.882;8.666;2023-05-07T07:25:40;100012.00;;;17.08;59.99
12963;BME280;6546;49.882;8.666;2023-05-07T07:28:06;100008.97;;;17.11;60.00
12963;BME280;6546;49.882;8.666;2023-05-07T07:30:33;100022.00;;;17.24;59.26
12963;BME280;6546;49.882;8.666;2023-05-07T07:32:59;100031.88;;;17.28;59.22
12963;BME280;6546;49.882;8.666;2023-05-07T07:35:28;100034.44;;;17.35;59.11
12963;BME280;6546;49.882;8.666;2023-05-07T07:37:54;100034.06;;;17.38;58.61
12963;BME280;6546;49.882;8.666;2023-05-07T07:40:22;100034.41;;;17.48;58.40
12963;BME280;6546;49.882;8.666;2023-05-07T07:42:50;100040.03;;;17.52;58.39
12963;BME280;6546;49.882;8.666;2023-05-07T07:45:19;100041.44;;;17.54;58.12
12963;BME280;6546;49.882;8.666;2023-05-07T07:47:46;100033.25;;;17.38;58.85
12963;BME280;6546;49.882;8.666;2023-05-07T07:50:16;100044.69;;;17.56;58.54
12963;BME280;6546;49.882;8.666;2023-05-07T07:52:42;100041.63;;;17.59;58.31
12963;BME280;6546;49.882;8.666;2023-05-07T07:55:09;100038.44;;;17.57;58.25
12963;BME280;6546;49.882;8.666;2023-05-07T07:57:37;100045.09;;;17.40;58.83
12963;BME280;6546;49.882;8.666;2023-05-07T08:00:05;100049.69;;;17.51;58.28
12963;BME280;6546;49.882;8.666;2023-05-07T08:02:32;100049.50;;;17.59;57.66
12963;BME280;6546;49.882;8.666;2023-05-07T08:04:59;100046.28;;;17.51;58.00
12963;BME280;6546;49.882;8.666;2023-05-07T08:07:25;100052.09;;;17.66;57.65
12963;BME280;6546;49.882;8.666;2023-05-07T08:09:52;100050.28;;;17.66;57.57
12963;BME280;6546;49.882;8.666;2023-05-07T08:12:18;100048.66;;;17.65;57.96
12963;BME280;6546;49.882;8.666;2023-05-07T08:14:46;100049.28;;;17.54;58.36
12963;BME280;6546;49.882;8.666;2023-05-07T08:17:13;100048.50;;;17.60;58.01
12963;BME280;6546;49.882;8.666;2023-05-07T08:19:41;100040.63;;;17.67;58.21
12963;BME280;6546;49.882;8.666;2023-05-07T08:22:07;100038.97;;;17.72;57.92
12963;BME280;6546;49.882;8.666;2023-05-07T08:24:34;100047.75;;;17.84;57.80
12963;BME280;6546;49.882;8.666;2023-05-07T08:27:00;100039.06;;;17.91;57.67
12963;BME280;6546;49.882;8.666;2023-05-07T08:29:27;100042.03;;;18.01;57.61
12963;BME280;6546;49.882;8.666;2023-05-07T08:31:55;100041.34;;;18.18;56.98
12963;BME280;6546;49.882;8.666;2023-05-07T08:34:27;100041.88;;;18.27;57.02
12963;BME280;6546;49.882;8.666;2023-05-07T08:36:54;100042.63;;;18.34;56.18
12963;BME280;6546;49.882;8.666;2023-05-07T08:39:20;100044.09;;;18.23;56.15
12963;BME280;6546;49.882;8.666;2023-05-07T08:41:48;100049.78;;;18.20;56.19
12963;BME280;6546;49.882;8.666;2023-05-07T08:44:16;100038.25;;;18.28;56.17
12963;BME280;6546;49.882;8.666;2023-05-07T08:46:46;100043.88;;;18.31;56.59
12963;BME280;6546;49.882;8.666;2023-05-07T08:49:14;100048.63;;;18.41;56.38
12963;BME280;6546;49.882;8.666;2023-05-07T08:51:41;100040.97;;;18.40;55.59
12963;BME280;6546;49.882;8.666;2023-05-07T08:54:09;100036.53;;;18.40;55.94
12963;BME280;6546;49.882;8.666;2023-05-07T08:56:37;100035.88;;;18.51;55.34
12963;BME280;6546;49.882;8.666;2023-05-07T08:59:05;100055.25;;;18.50;55.76
12963;BME280;6546;49.882;8.666;2023-05-07T09:01:32;100052.66;;;18.68;55.45
12963;BME280;6546;49.882;8.666;2023-05-07T09:04:00;100057.53;;;18.65;55.34
12963;BME280;6546;49.882;8.666;2023-05-07T09:06:29;100045.28;;;18.59;54.89
12963;BME280;6546;49.882;8.666;2023-05-07T09:08:58;100057.16;;;18.61;55.41
12963;BME280;6546;49.882;8.666;2023-05-07T09:11:26;100061.81;;;18.59;55.57
12963;BME280;6546;49.882;8.666;2023-05-07T09:13:53;100053.56;;;18.56;55.26
12963;BME280;6546;49.882;8.666;2023-05-07T09:16:21;100062.19;;;18.63;55.26
12963;BME280;6546;49.882;8.666;2023-05-07T09:18:50;100065.63;;;18.63;54.63
12963;BME280;6546;49.882;8.666;2023-05-07T09:21:18;100069.44;;;18.67;54.96
12963;BME280;6546;49.882;8.666;2023-05-07T09:23:47;100061.72;;;18.72;54.85
12963;BME280;6546;49.882;8.666;2023-05-07T09:26:14;100062.84;;;18.83;54.98
12963;BME280;6546;49.882;8.666;2023-05-07T09:28:41;100055.72;;;18.90;54.35
12963;BME280;6546;49.882;8.666;2023-05-07T09:31:07;100063.25;;;19.05;54.43
12963;BME280;6546;49.882;8.666;2023-05-07T09:33:34;100062.16;;;19.12;54.53
12963;BME280;6546;49.882;8.666;2023-05-07T09:36:04;100060.63;;;19.23;54.04
12963;BME280;6546;49.882;8.666;2023-05-07T09:38:31;100062.38;;;19.29;53.06
12963;BME280;6546;49.882;8.666;2023-05-07T09:41:03;100073.03;;;19.52;52.92
12963;BME280;6546;49.882;8.666;2023-05-07T09:43:34;100068.44;;;19.66;52.61
12963;BME280;6546;49.882;8.666;2023-05-07T09:46:03;100056.56;;;19.63;52.48
12963;BME280;6546;49.882;8.666;2023-05-07T09:48:29;100060.75;;;19.82;52.05
12963;BME280;6546;49.882;8.666;2023-05-07T09:50:57;100060.00;;;19.93;51.85
12963;BME280;6546;49.882;8.666;2023-05-07T09:53:29;100053.31;;;19.79;51.17
12963;BME280;6546;49.882;8.666;2023-05-07T09:55:57;100053.31;;;19.79;51.54
12963;BME280;6546;49.882;8.666;2023-05-07T09:58:27;100049.34;;;19.88;51.87
12963;BME280;6546;49.882;8.666;2023-05-07T10:00:54;100047.91;;;19.92;51.55
12963;BME280;6546;49.882;8.666;2023-05-07T10:03:24;100048.72;;;20.05;51.76
12963;BME280;6546;49.882;8.666;2023-05-07T10:05:53;100052.00;;;20.00;51.43
12963;BME280;6546;49.882;8.666;2023-05-07T10:08:20;100046.34;;;20.03;51.33
12963;BME280;6546;49.882;8.666;2023-05-07T10:10:47;100037.56;;;20.09;51.42
12963;BME280;6546;49.882;8.666;2023-05-07T10:13:15;100044.44;;;20.22;51.33
12963;BME280;6546;49.882;8.666;2023-05-07T10:15:44;100039.50;;;20.14;51.33
12963;BME280;6546;49.882;8.666;2023-05-07T10:18:12;100045.75;;;20.31;51.23
12963;BME280;6546;49.882;8.666;2023-05-07T10:20:42;100038.00;;;20.48;50.95
12963;BME280;6546;49.882;8.666;2023-05-07T10:23:13;100052.19;;;20.58;50.48
12963;BME280;6546;49.882;8.666;2023-05-07T10:25:41;100035.81;;;20.56;50.14
12963;BME280;6546;49.882;8.666;2023-05-07T10:28:10;100036.63;;;20.68;50.02
12963;BME280;6546;49.882;8.666;2023-05-07T10:30:44;100042.47;;;20.70;49.60
12963;BME280;6546;49.882;8.666;2023-05-07T10:33:17;100036.88;;;20.78;49.44
12963;BME280;6546;49.882;8.666;2023-05-07T10:35:47;100040.66;;;20.82;49.66
12963;BME280;6546;49.882;8.666;2023-05-07T11:31:52;100018.66;;;21.91;45.46
12963;BME280;6546;49.882;8.666;2023-05-07T12:11:24;99987.53;;;22.22;43.96
12963;BME280;6546;49.882;8.666;2023-05-07T12:13:51;99979.69;;;22.27;43.72
12963;BME280;6546;49.882;8.666;2023-05-07T12:16:18;99983.13;;;22.27;43.36
12963;BME280;6546;49.882;8.666;2023-05-07T12:18:46;99980.50;;;22.44;43.78
12963;BME280;6546;49.882;8.666;2023-05-07T12:21:13;99979.28;;;22.68;43.64
12963;BME280;6546;49.882;8.666;2023-05-07T12:23:40;99990.28;;;22.82;41.64
12963;BME280;6546;49.882;8.666;2023-05-07T12:26:06;99993.81;;;22.87;41.83
12963;BME280;6546;49.882;8.666;2023-05-07T12:28:39;99989.44;;;22.76;41.74
12963;BME280;6546;49.882;8.666;2023-05-07T12:31:06;99980.97;;;22.74;39.38
12963;BME280;6546;49.882;8.666;2023-05-07T12:33:34;99973.53;;;22.71;41.36
12963;BME280;6546;49.882;8.666;2023-05-07T12:36:04;99970.47;;;22.63;42.19
12963;BME280;6546;49.882;8.666;2023-05-07T12:38:36;99966.66;;;22.70;40.82
12963;BME280;6546;49.882;8.666;2023-05-07T12:41:04;99975.13;;;22.72;39.92
12963;BME280;6546;49.882;8.666;2023-05-07T12:43:30;99980.41;;;22.72;38.86
12963;BME280;6546;49.882;8.666;2023-05-07T12:46:00;99978.16;;;22.64;39.41
12963;BME280;6546;49.882;8.666;2023-05-07T12:48:27;99975.13;;;22.72;40.15
12963;BME280;6546;49.882;8.666;2023-05-07T12:50:54;99973.53;;;22.71;40.18
12963;BME280;6546;49.882;8.666;2023-05-07T12:53:22;99983.28;;;22.71;40.66
12963;BME280;6546;49.882;8.666;2023-05-07T12:55:52;99973.84;;;22.58;40.31
12963;BME280;6546;49.882;8.666;2023-05-07T12:58:20;99973.44;;;22.49;40.75
12963;BME280;6546;49.882;8.666;2023-05-07T13:00:48;99966.72;;;22.59;41.26
12963;BME280;6546;49.882;8.666;2023-05-07T13:03:26;99962.41;;;22.69;41.12
12963;BME280;6546;49.882;8.666;2023-05-07T13:05:54;99972.41;;;22.67;41.32
12963;BME280;6546;49.882;8.666;2023-05-07T13:08:25;99953.44;;;22.54;39.79
12963;BME280;6546;49.882;8.666;2023-05-07T13:10:52;99948.66;;;22.50;40.20
12963;BME280;6546;49.882;8.666;2023-05-07T13:13:19;99946.34;;;22.54;39.36
12963;BME280;6546;49.882;8.666;2023-05-07T13:15:46;99952.09;;;22.68;39.50
12963;BME280;6546;49.882;8.666;2023-05-07T13:18:12;99948.22;;;22.59;40.84
12963;BME280;6546;49.882;8.666;2023-05-07T13:20:40;99945.22;;;22.67;40.84
12963;BME280;6546;49.882;8.666;2023-05-07T13:23:07;99952.72;;;22.75;39.94
12963;BME280;6546;49.882;8.666;2023-05-07T13:25:34;99939.75;;;22.73;39.65
12963;BME280;6546;49.882;8.666;2023-05-07T13:28:00;99938.78;;;22.79;39.91
12963;BME280;6546;49.882;8.666;2023-05-07T13:30:27;99942.47;;;22.78;40.46
12963;BME280;6546;49.882;8.666;2023-05-07T13:32:55;99933.50;;;22.63;40.23
12963;BME280;6546;49.882;8.666;2023-05-07T13:35:22;99936.81;;;22.70;39.94
12963;BME280;6546;49.882;8.666;2023-05-07T13:37:50;99937.94;;;22.74;40.33
12963;BME280;6546;49.882;8.666;2023-05-07T13:40:17;99953.16;;;22.88;39.69
12963;BME280;6546;49.882;8.666;2023-05-07T13:42:44;99945.81;;;22.90;39.26
12963;BME280;6546;49.882;8.666;2023-05-07T13:45:11;99941.47;;;22.84;39.23
12963;BME280;6546;49.882;8.666;2023-05-07T13:47:39;99939.94;;;22.88;38.88
12963;BME280;6546;49.882;8.666;2023-05-07T13:50:07;99933.63;;;22.89;39.02
12963;BME280;6546;49.882;8.666;2023-05-07T13:52:34;99930.44;;;22.87;39.04
12963;BME280;6546;49.882;8.666;2023-05-07T13:55:02;99934.00;;;22.76;39.60
12963;BME280;6546;49.882;8.666;2023-05-07T13:57:28;99925.09;;;22.82;39.47
12963;BME280;6546;49.882;8.666;2023-05-07T13:59:55;99929.47;;;22.93;39.73
12963;BME280;6546;49.882;8.666;2023-05-07T14:02:22;99922.88;;;22.96;39.73
12963;BME280;6546;49.882;8.666;2023-05-07T14:04:48;99917.91;;;22.99;40.14
12963;BME280;6546;49.882;8.666;2023-05-07T14:07:15;99921.59;;;22.98;39.09
12963;BME280;6546;49.882;8.666;2023-05-07T14:09:41;99916.56;;;22.97;39.22
12963;BME280;6546;49.882;8.666;2023-05-07T14:12:09;99913.00;;;22.86;38.92
12963;BME280;6546;49.882;8.666;2023-05-07T14:14:36;99911.25;;;22.75;39.83
12963;BME280;6546;49.882;8.666;2023-05-07T14:17:02;99913.06;;;22.70;39.82
12963;BME280;6546;49.882;8.666;2023-05-07T14:19:29;99912.56;;;22.73;39.77
12963;BME280;6546;49.882;8.666;2023-05-07T14:21:55;99912.56;;;22.73;39.93
12963;BME280;6546;49.882;8.666;2023-05-07T14:24:23;99911.25;;;22.75;39.83
12963;BME280;6546;49.882;8.666;2023-05-07T14:26:50;99915.75;;;22.75;40.14
12963;BME280;6546;49.882;8.666;2023-05-07T14:29:18;99906.16;;;22.69;40.05
12963;BME280;6546;49.882;8.666;2023-05-07T14:31:45;99913.41;;;22.78;39.97
12963;BME280;6546;49.882;8.666;2023-05-07T14:34:11;99913.19;;;22.80;40.26
12963;BME280;6546;49.882;8.666;2023-05-07T14:36:38;99914.34;;;22.67;40.14
12963;BME280;6546;49.882;8.666;2023-05-07T14:39:04;99910.66;;;22.68;40.38